Archival Weather

Chicago O'Hare International

Chicago, Illinois (KORD)

Report from: Thursday, May 11, 2023 1:51 PM CDT
Current time: Sunday, February 25, 2024 4:02 PM CST

Current weather – Weather history – Daily summaries
Weather forecast

Temperature27.8°C (82.0°F)
Heat index26.8°C (80.3°F)
Dew point3.3°C (37.9°F)
Winds 7 kts (3.6 m/s, 8.1 mph) South-Southeast (160°)
Wind gusts 14 kts (7.2 m/s, 16.1 mph)
Visibility10 mi. (16.1 km)
Clouds Few clouds 25,000 ft. (7,620 m)
Ceiling: Broken clouds 30,000 ft. (9,144 m)
Altimeter30.05 in.Hg (1018 mB)
Relative humidity21 %
Density altitude1,457 ft. (444 m)
Sea-level pressure101.7 kPa (1017 mB, 30.04 in.Hg)
Remarks Automated weather observing station with precipitation discriminator
Flight conditions Visual Meteorological Conditions
Raw dataKORD 111851Z 16007G14KT 10SM FEW250 BKN300 28/03 A3005 RMK AO2 SLP173 T02780033
An error has occurred. This application may no longer respond until reloaded. Reload 🗙